ENT4534 HEMA-EPWA
Flight info
| Callsign | ENT4534 |
|---|---|
| Flight time | N/A |
| Altitude | 34000 |
| Route | ALKUN DCT MEMPO DCT LXR DCT GINDI/N0452F350 DCT LUBOS DCT ALPID/N0453F360 DCT RASDA DCT USEBE DCT KOMEZ DCT MAROS DCT PEDER DCT DASNI DCT TOMBI DCT DERYA DCT AYT DCT RAVGO DCT YASEN DCT MAKOL DCT SITNO/N0452F380 DCT WRN DCT BALIK DCT ARGES DCT KARIL DCT KENIN DCT LENOV/N0439F320 DCT ORTEB DCT KONZI DCT LOGDA |
| Aircraft | B738/M-DFGHIJ1LORVWXY/EB1 |
Departure
| Time | 2026-04-23 11:59 |
|---|---|
| Airport | Marsa Alam International Airport (HEMA) |
Arrival
| Time | N/A |
|---|---|
| Airport | Warsaw Chopin Airport (EPWA) |
| Time | Latitude | Longitude | Altitude | Speed | Heading |
|---|---|---|---|---|---|
| 2026-04-23 11:19 | 25.55478 | 34.59098 | 247 ft | 0 kts | 59° |
| 2026-04-23 11:49 | 25.55476 | 34.59095 | 247 ft | 2 kts | 59° |
| 2026-04-23 11:49 | 25.55468 | 34.59081 | 248 ft | 2 kts | 60° |
| 2026-04-23 11:50 | 25.55461 | 34.59067 | 249 ft | 2 kts | 60° |
| 2026-04-23 11:50 | 25.55453 | 34.59053 | 250 ft | 2 kts | 60° |
| 2026-04-23 11:50 | 25.55446 | 34.59038 | 250 ft | 2 kts | 60° |
| 2026-04-23 11:50 | 25.55438 | 34.59024 | 251 ft | 1 kts | 76° |
| 2026-04-23 11:51 | 25.55439 | 34.59013 | 251 ft | 2 kts | 118° |
| 2026-04-23 11:51 | 25.55449 | 34.59002 | 252 ft | 2 kts | 159° |
| 2026-04-23 11:51 | 25.55462 | 34.58995 | 253 ft | 0 kts | 147° |
| 2026-04-23 11:51 | 25.55463 | 34.58995 | 253 ft | 0 kts | 146° |
| 2026-04-23 11:54 | 25.55462 | 34.58995 | 253 ft | 0 kts | 146° |
| 2026-04-23 11:54 | 25.55442 | 34.59008 | 252 ft | 6 kts | 150° |
| 2026-04-23 11:54 | 25.55383 | 34.59045 | 248 ft | 12 kts | 150° |
| 2026-04-23 11:54 | 25.55298 | 34.59100 | 245 ft | 14 kts | 150° |
| 2026-04-23 11:55 | 25.55217 | 34.59135 | 245 ft | 10 kts | 198° |
| 2026-04-23 11:55 | 25.55180 | 34.59082 | 247 ft | 5 kts | 239° |
| 2026-04-23 11:55 | 25.55161 | 34.59047 | 250 ft | 6 kts | 239° |
| 2026-04-23 11:55 | 25.55129 | 34.59003 | 253 ft | 8 kts | 206° |
| 2026-04-23 11:56 | 25.55056 | 34.59025 | 255 ft | 13 kts | 149° |
| 2026-04-23 11:56 | 25.54982 | 34.59072 | 256 ft | 12 kts | 150° |
| 2026-04-23 11:56 | 25.54903 | 34.59122 | 256 ft | 13 kts | 150° |
| 2026-04-23 11:56 | 25.54814 | 34.59178 | 255 ft | 15 kts | 150° |
| 2026-04-23 11:57 | 25.54715 | 34.59242 | 254 ft | 17 kts | 150° |
| 2026-04-23 11:57 | 25.54626 | 34.59243 | 256 ft | 11 kts | 236° |
| 2026-04-23 11:57 | 25.54597 | 34.59186 | 259 ft | 6 kts | 242° |
| 2026-04-23 11:57 | 25.54577 | 34.59146 | 261 ft | 8 kts | 244° |
| 2026-04-23 11:58 | 25.54604 | 34.59078 | 262 ft | 11 kts | 332° |
| 2026-04-23 11:58 | 25.54683 | 34.59029 | 264 ft | 17 kts | 330° |
| 2026-04-23 11:58 | 25.54940 | 34.58866 | 266 ft | 77 kts | 330° |
| 2026-04-23 11:58 | 25.55602 | 34.58445 | 267 ft | 141 kts | 330° |
| 2026-04-23 11:59 | 25.56579 | 34.57822 | 542 ft | 171 kts | 332° |
| 2026-04-23 11:59 | 25.57612 | 34.57178 | 1351 ft | 171 kts | 331° |
| 2026-04-23 11:59 | 25.58659 | 34.56499 | 1836 ft | 183 kts | 330° |
| 2026-04-23 11:59 | 25.59768 | 34.55754 | 2350 ft | 192 kts | 330° |
| 2026-04-23 12:00 | 25.60945 | 34.54983 | 2783 ft | 205 kts | 331° |
| 2026-04-23 12:00 | 25.62232 | 34.54158 | 3179 ft | 222 kts | 331° |
| 2026-04-23 12:00 | 25.63660 | 34.53251 | 3538 ft | 243 kts | 331° |
| 2026-04-23 12:00 | 25.65148 | 34.52287 | 4132 ft | 255 kts | 330° |
| 2026-04-23 12:01 | 25.66645 | 34.51207 | 4768 ft | 264 kts | 321° |
| 2026-04-23 12:01 | 25.67907 | 34.49672 | 5431 ft | 274 kts | 303° |
| 2026-04-23 12:01 | 25.68670 | 34.47747 | 6160 ft | 280 kts | 284° |
| 2026-04-23 12:01 | 25.68812 | 34.45575 | 6860 ft | 286 kts | 264° |
| 2026-04-23 12:02 | 25.68292 | 34.43485 | 7649 ft | 287 kts | 245° |
| 2026-04-23 12:02 | 25.67207 | 34.41598 | 8355 ft | 292 kts | 235° |
| 2026-04-23 12:02 | 25.65988 | 34.39819 | 9094 ft | 295 kts | 233° |
| 2026-04-23 12:02 | 25.64724 | 34.38013 | 9797 ft | 298 kts | 234° |
| 2026-04-23 12:03 | 25.63486 | 34.36219 | 10564 ft | 298 kts | 234° |
| 2026-04-23 12:03 | 25.62229 | 34.34368 | 11302 ft | 299 kts | 234° |
| 2026-04-23 12:03 | 25.60992 | 34.32531 | 12044 ft | 299 kts | 234° |
| 2026-04-23 12:03 | 25.59742 | 34.30668 | 12811 ft | 299 kts | 235° |
| 2026-04-23 12:04 | 25.58510 | 34.28830 | 13484 ft | 301 kts | 234° |
| 2026-04-23 12:04 | 25.57257 | 34.26962 | 14170 ft | 302 kts | 234° |
| 2026-04-23 12:04 | 25.56006 | 34.25100 | 14801 ft | 304 kts | 234° |
| 2026-04-23 12:04 | 25.54749 | 34.23229 | 15490 ft | 305 kts | 234° |
| 2026-04-23 12:05 | 25.53484 | 34.21349 | 16137 ft | 306 kts | 234° |
| 2026-04-23 12:05 | 25.52194 | 34.19432 | 16754 ft | 308 kts | 234° |
| 2026-04-23 12:05 | 25.50913 | 34.17529 | 17366 ft | 310 kts | 234° |
| 2026-04-23 12:05 | 25.49630 | 34.15624 | 17978 ft | 311 kts | 234° |
| 2026-04-23 12:06 | 25.48363 | 34.13673 | 18579 ft | 311 kts | 239° |
| 2026-04-23 12:06 | 25.47331 | 34.11617 | 19217 ft | 309 kts | 246° |
| 2026-04-23 12:06 | 25.45941 | 34.07088 | 20347 ft | 311 kts | 255° |
| 2026-04-23 12:07 | 25.45381 | 34.04786 | 20965 ft | 310 kts | 255° |
| 2026-04-23 12:07 | 25.44824 | 34.02465 | 21172 ft | 322 kts | 255° |
| 2026-04-23 12:07 | 25.44233 | 34.00024 | 21371 ft | 334 kts | 255° |
| 2026-04-23 12:07 | 25.43615 | 33.97507 | 21511 ft | 347 kts | 255° |
| 2026-04-23 12:08 | 25.43021 | 33.94879 | 21644 ft | 360 kts | 259° |
| 2026-04-23 12:08 | 25.42763 | 33.92057 | 21803 ft | 373 kts | 269° |
| 2026-04-23 12:08 | 25.43010 | 33.89172 | 22240 ft | 379 kts | 278° |
| 2026-04-23 12:08 | 25.43603 | 33.86365 | 22780 ft | 381 kts | 283° |
| 2026-04-23 12:09 | 25.44354 | 33.83558 | 23350 ft | 383 kts | 284° |
| 2026-04-23 12:09 | 25.45172 | 33.80763 | 23891 ft | 384 kts | 285° |
| 2026-04-23 12:09 | 25.46016 | 33.77953 | 24441 ft | 384 kts | 285° |
| 2026-04-23 12:09 | 25.46862 | 33.75143 | 24902 ft | 386 kts | 285° |
| 2026-04-23 12:10 | 25.47703 | 33.72321 | 25404 ft | 387 kts | 284° |
| 2026-04-23 12:10 | 25.48543 | 33.69472 | 25820 ft | 389 kts | 284° |
| 2026-04-23 12:10 | 25.49365 | 33.66659 | 26278 ft | 390 kts | 284° |
| 2026-04-23 12:10 | 25.50193 | 33.63812 | 26756 ft | 390 kts | 284° |
| 2026-04-23 12:11 | 25.51023 | 33.60944 | 27113 ft | 393 kts | 283° |
| 2026-04-23 12:11 | 25.51857 | 33.58052 | 27553 ft | 394 kts | 284° |
| 2026-04-23 12:11 | 25.52689 | 33.55162 | 27920 ft | 396 kts | 283° |
| 2026-04-23 12:11 | 25.53522 | 33.52264 | 28355 ft | 396 kts | 283° |
| 2026-04-23 12:12 | 25.54350 | 33.49375 | 28704 ft | 398 kts | 283° |
| 2026-04-23 12:12 | 25.55184 | 33.46467 | 29132 ft | 397 kts | 283° |
| 2026-04-23 12:12 | 25.56021 | 33.43547 | 29483 ft | 399 kts | 283° |
| 2026-04-23 12:12 | 25.56859 | 33.40628 | 30007 ft | 396 kts | 283° |
| 2026-04-23 12:13 | 25.57685 | 33.37747 | 30469 ft | 394 kts | 282° |
| 2026-04-23 12:13 | 25.58515 | 33.34850 | 30909 ft | 393 kts | 282° |
| 2026-04-23 12:13 | 25.59352 | 33.31919 | 31317 ft | 393 kts | 281° |
| 2026-04-23 12:13 | 25.60168 | 33.29060 | 31765 ft | 391 kts | 282° |
| 2026-04-23 12:14 | 25.60982 | 33.26203 | 32154 ft | 391 kts | 281° |
| 2026-04-23 12:14 | 25.61809 | 33.23298 | 32527 ft | 390 kts | 281° |
| 2026-04-23 12:14 | 25.62620 | 33.20452 | 32908 ft | 389 kts | 281° |
| 2026-04-23 12:14 | 25.63432 | 33.17596 | 33179 ft | 391 kts | 281° |
| 2026-04-23 12:15 | 25.64247 | 33.14724 | 33525 ft | 390 kts | 281° |
| 2026-04-23 12:15 | 25.65058 | 33.11868 | 33829 ft | 390 kts | 280° |
| 2026-04-23 12:15 | 25.66685 | 33.06132 | 33829 ft | 387 kts | 280° |
| 2026-04-23 12:16 | 25.68289 | 33.00477 | 33830 ft | 385 kts | 281° |
| 2026-04-23 12:16 | 25.69887 | 32.94816 | 33827 ft | 384 kts | 281° |
| 2026-04-23 12:17 | 25.71477 | 32.89172 | 33825 ft | 384 kts | 281° |
| 2026-04-23 12:17 | 25.73086 | 32.83560 | 33817 ft | 387 kts | 282° |
| 2026-04-23 12:18 | 25.75585 | 32.78172 | 33819 ft | 403 kts | 298° |
| 2026-04-23 12:18 | 25.77486 | 32.75801 | 33814 ft | 414 kts | 307° |
| 2026-04-23 12:18 | 25.79664 | 32.73723 | 33816 ft | 422 kts | 312° |
| 2026-04-23 12:19 | 25.84561 | 32.70041 | 33814 ft | 429 kts | 317° |
| 2026-04-23 12:19 | 25.89694 | 32.66605 | 33809 ft | 431 kts | 319° |
| 2026-04-23 12:20 | 25.94875 | 32.63164 | 33810 ft | 430 kts | 318° |
| 2026-04-23 12:20 | 25.99980 | 32.59728 | 33811 ft | 433 kts | 318° |
| 2026-04-23 12:21 | 26.05120 | 32.56230 | 33820 ft | 431 kts | 318° |
| 2026-04-23 12:21 | 26.10240 | 32.52730 | 33829 ft | 428 kts | 317° |
| 2026-04-23 12:22 | 26.15291 | 32.49277 | 33838 ft | 424 kts | 317° |
| 2026-04-23 12:22 | 26.20381 | 32.45766 | 33850 ft | 428 kts | 317° |
| 2026-04-23 12:23 | 26.25424 | 32.42302 | 33862 ft | 424 kts | 317° |
| 2026-04-23 12:23 | 26.30480 | 32.38820 | 33859 ft | 426 kts | 317° |
| 2026-04-23 12:24 | 26.35513 | 32.35343 | 33861 ft | 429 kts | 317° |
| 2026-04-23 12:24 | 26.40612 | 32.31826 | 33868 ft | 426 kts | 316° |
| 2026-04-23 12:25 | 26.45641 | 32.28356 | 33865 ft | 427 kts | 316° |
| 2026-04-23 12:25 | 26.50695 | 32.24862 | 33858 ft | 425 kts | 316° |
| 2026-04-23 12:26 | 26.55737 | 32.21364 | 33869 ft | 425 kts | 317° |
| 2026-04-23 12:26 | 26.60794 | 32.17861 | 33874 ft | 423 kts | 316° |
| 2026-04-23 12:27 | 26.65802 | 32.14386 | 33890 ft | 423 kts | 316° |
| 2026-04-23 12:27 | 26.70825 | 32.10896 | 33899 ft | 424 kts | 317° |
| 2026-04-23 12:28 | 26.75819 | 32.07431 | 33904 ft | 421 kts | 316° |
| 2026-04-23 12:28 | 26.80841 | 32.03930 | 33906 ft | 425 kts | 316° |
| 2026-04-23 12:29 | 26.85872 | 32.00423 | 33907 ft | 423 kts | 316° |
| 2026-04-23 12:29 | 26.90832 | 31.96968 | 33905 ft | 423 kts | 316° |
| 2026-04-23 12:30 | 26.95856 | 31.93459 | 33903 ft | 420 kts | 316° |
| 2026-04-23 12:30 | 27.00852 | 31.89973 | 33908 ft | 421 kts | 316° |
| 2026-04-23 12:31 | 27.05851 | 31.86461 | 33909 ft | 425 kts | 316° |
| 2026-04-23 12:31 | 27.10894 | 31.82935 | 33905 ft | 422 kts | 317° |
| 2026-04-23 12:32 | 27.15863 | 31.79454 | 33910 ft | 423 kts | 317° |
| 2026-04-23 12:32 | 27.20904 | 31.75910 | 33904 ft | 423 kts | 317° |
| 2026-04-23 12:33 | 27.26170 | 31.72739 | 33904 ft | 444 kts | 331° |
| 2026-04-23 12:33 | 27.32299 | 31.71166 | 33895 ft | 458 kts | 341° |
| 2026-04-23 12:34 | 27.38676 | 31.70178 | 33891 ft | 457 kts | 342° |
| 2026-04-23 12:34 | 27.44962 | 31.69192 | 33899 ft | 456 kts | 342° |
| 2026-04-23 12:35 | 27.51271 | 31.68098 | 33899 ft | 456 kts | 341° |
| 2026-04-23 12:35 | 27.57576 | 31.66918 | 33896 ft | 455 kts | 341° |
| 2026-04-23 12:36 | 27.63823 | 31.65714 | 33909 ft | 454 kts | 341° |
| 2026-04-23 12:36 | 27.66927 | 31.65101 | 34017 ft | 459 kts | 341° |
| 2026-04-23 12:36 | 27.70120 | 31.64468 | 34236 ft | 461 kts | 341° |
| 2026-04-23 12:37 | 27.73264 | 31.63846 | 34633 ft | 459 kts | 341° |
| 2026-04-23 12:37 | 27.76419 | 31.63223 | 34981 ft | 458 kts | 341° |
| 2026-04-23 12:37 | 27.79539 | 31.62608 | 35391 ft | 454 kts | 341° |
| 2026-04-23 12:37 | 27.82665 | 31.61990 | 35628 ft | 456 kts | 341° |
| 2026-04-23 12:38 | 27.85809 | 31.61363 | 35795 ft | 457 kts | 341° |
| 2026-04-23 12:38 | 27.88945 | 31.60737 | 35907 ft | 459 kts | 341° |
| 2026-04-23 12:38 | 27.95243 | 31.59483 | 35911 ft | 455 kts | 341° |
| 2026-04-23 12:39 | 28.01471 | 31.58249 | 35908 ft | 454 kts | 341° |
| 2026-04-23 12:39 | 28.07720 | 31.56996 | 35919 ft | 456 kts | 341° |
| 2026-04-23 12:40 | 28.10877 | 31.56365 | 35910 ft | 455 kts | 342° |